Time;durP1;ratioP1;P1;durP2;ratioP2;P2;SDS_P1;SDS_P2;PMS_P1;PMS_P2;Temp;Humidity;BMP_temperature;BMP_pressure;BME280_temperature;BME280_humidity;BME280_pressure;Samples;Min_cycle;Max_cycle;Signal;HPM_P1;HPM_P2
2022/04/22 00:01:09;;;;;;;25.58;14.65;;;;;;;7.63;81.49;98492.78;4993397;28;20068;-50
2022/04/22 00:03:34;;;;;;;27.17;14.57;;;;;;;7.55;82.10;98491.31;4997459;28;20055;-50
2022/04/22 00:06:01;;;;;;;24.00;13.70;;;;;;;7.56;82.29;98487.63;4995900;28;20155;-51
2022/04/22 00:08:26;;;;;;;29.80;15.52;;;;;;;7.62;82.16;98483.19;4989442;28;20019;-53
2022/04/22 00:13:36;;;;;;;26.20;14.88;;;;;;;7.54;82.26;98476.38;5000715;28;20099;-53
2022/04/22 00:16:02;;;;;;;30.55;15.43;;;;;;;7.48;82.73;98474.66;4993877;28;20039;-50
2022/04/22 00:18:28;;;;;;;26.38;15.07;;;;;;;7.43;83.00;98477.25;4995245;28;20030;-50
2022/04/22 00:20:53;;;;;;;30.48;16.13;;;;;;;7.37;83.58;98472.88;4992730;28;20049;-50
2022/04/22 00:23:19;;;;;;;29.80;15.07;;;;;;;7.43;83.41;98463.91;4989679;28;20026;-52
2022/04/22 00:25:44;;;;;;;26.48;15.75;;;;;;;7.40;83.38;98459.06;4994645;28;20408;-49
2022/04/22 00:28:10;;;;;;;25.80;15.02;;;;;;;7.38;83.54;98455.03;4996103;28;20129;-49
2022/04/22 00:30:35;;;;;;;30.83;15.25;;;;;;;7.35;83.69;98454.44;4989591;28;20038;-51
2022/04/22 00:33:01;;;;;;;33.50;16.98;;;;;;;7.39;83.47;98449.47;4989323;28;20034;-51
2022/04/22 00:35:26;;;;;;;30.02;15.90;;;;;;;7.29;84.18;98449.28;4992874;28;20030;-51
2022/04/22 00:37:51;;;;;;;35.58;16.63;;;;;;;7.28;84.21;98453.00;4988674;28;20038;-51
2022/04/22 00:40:17;;;;;;;29.65;15.27;;;;;;;7.34;83.98;98450.19;4995201;28;20042;-53
2022/04/22 00:42:42;;;;;;;29.95;16.38;;;;;;;7.35;84.06;98448.31;4992395;28;20122;-52
2022/04/22 00:45:09;;;;;;;33.40;16.75;;;;;;;7.34;83.93;98450.19;4992632;28;20063;-50
2022/04/22 00:47:35;;;;;;;31.60;16.75;;;;;;;7.31;84.10;98444.50;4997471;28;20673;-49
2022/04/22 00:50:00;;;;;;;33.83;17.58;;;;;;;7.32;83.97;98443.47;4988890;28;20080;-51
2022/04/22 00:52:26;;;;;;;31.17;16.90;;;;;;;7.34;83.77;98442.19;4988861;28;20026;-51
2022/04/22 00:54:51;;;;;;;35.60;17.42;;;;;;;7.33;83.90;98439.75;4987151;28;20037;-53
2022/04/22 00:57:18;;;;;;;35.40;18.17;;;;;;;7.27;84.14;98435.38;4987907;28;20061;-51
2022/04/22 00:59:43;;;;;;;35.40;18.33;;;;;;;7.24;84.59;98442.00;4986854;28;20053;-53
2022/04/22 01:02:09;;;;;;;35.30;16.75;;;;;;;7.23;84.25;98432.38;4986692;28;20035;-52
2022/04/22 01:10:02;;;;;;;32.08;17.08;;;;;;;7.17;84.80;98437.88;4998719;28;20091;-51
2022/04/22 01:12:30;;;;;;;36.28;18.00;;;;;;;7.23;84.46;98434.25;4993918;28;20037;-51
2022/04/22 01:14:56;;;;;;;34.15;17.80;;;;;;;7.21;84.69;98425.69;4975139;28;20037;-51
2022/04/22 01:17:22;;;;;;;29.88;16.02;;;;;;;7.27;84.90;98425.53;4988289;28;20042;-52
2022/04/22 01:19:47;;;;;;;39.85;18.30;;;;;;;7.21;84.72;98420.34;5004114;28;20040;-52
2022/04/22 01:22:13;;;;;;;36.88;19.38;;;;;;;7.19;85.11;98425.09;4995718;28;20034;-53
2022/04/22 01:24:38;;;;;;;37.03;15.48;;;;;;;7.23;85.34;98416.38;4993550;28;20041;-53
2022/04/22 01:27:05;;;;;;;33.13;18.15;;;;;;;7.26;84.72;98421.25;4993664;28;20049;-52
2022/04/22 01:29:31;;;;;;;42.63;19.15;;;;;;;7.21;85.09;98429.16;4998382;28;20072;-52
2022/04/22 01:31:59;;;;;;;37.75;18.05;;;;;;;7.22;85.35;98427.31;4998437;28;20041;-51
2022/04/22 01:34:24;;;;;;;41.72;19.30;;;;;;;7.25;84.99;98419.63;4992325;28;20061;-50
2022/04/22 01:36:50;;;;;;;43.55;18.42;;;;;;;7.22;85.18;98427.31;4986907;28;20370;-49
2022/04/22 01:39:15;;;;;;;42.00;18.35;;;;;;;7.21;85.48;98423.81;4986884;28;20097;-51
2022/04/22 01:41:41;;;;;;;38.95;19.48;;;;;;;7.15;85.72;98421.31;4988507;28;20084;-50
2022/04/22 01:44:06;;;;;;;38.28;19.13;;;;;;;7.16;85.82;98412.25;4992758;28;20037;-53
2022/04/22 01:46:32;;;;;;;35.55;18.23;;;;;;;7.10;86.03;98414.84;4988447;28;20034;-49
2022/04/22 01:48:58;;;;;;;40.50;18.08;;;;;;;7.13;85.90;98409.03;4988304;28;20027;-51
2022/04/22 01:51:23;;;;;;;38.50;20.13;;;;;;;7.17;85.64;98403.25;4989754;28;20068;-50
2022/04/22 01:53:49;;;;;;;43.22;20.27;;;;;;;7.16;85.72;98414.94;4998091;28;20050;-51
2022/04/22 01:56:14;;;;;;;41.58;19.10;;;;;;;7.21;85.73;98407.81;4996540;28;20349;-49
2022/04/22 01:58:40;;;;;;;42.20;21.02;;;;;;;7.30;85.56;98405.59;4997585;28;20037;-53
2022/04/22 02:01:05;;;;;;;46.20;20.02;;;;;;;7.43;84.70;98407.94;4987511;28;20460;-53
2022/04/22 02:03:31;;;;;;;36.53;16.35;;;;;;;7.43;84.75;98407.13;4992687;28;20033;-49
2022/04/22 02:05:57;;;;;;;43.80;20.80;;;;;;;7.44;84.54;98404.22;4992662;28;20030;-49
2022/04/22 02:08:23;;;;;;;44.67;21.10;;;;;;;7.40;84.82;98408.41;4987386;28;20477;-53
2022/04/22 02:10:48;;;;;;;47.95;21.60;;;;;;;7.45;84.92;98403.16;4993315;28;20034;-52
2022/04/22 02:13:14;;;;;;;47.28;20.80;;;;;;;7.43;85.08;98407.94;4988422;28;20053;-51
2022/04/22 02:15:39;;;;;;;43.72;20.17;;;;;;;7.45;84.88;98405.84;4987693;28;20042;-53
2022/04/22 02:18:05;;;;;;;45.15;19.88;;;;;;;7.46;84.95;98402.13;4988178;28;20030;-53
2022/04/22 02:20:30;;;;;;;44.60;19.13;;;;;;;7.50;84.73;98405.91;4994947;28;20384;-50
2022/04/22 02:22:56;;;;;;;48.20;21.10;;;;;;;7.48;84.98;98399.19;5001802;28;20102;-52
2022/04/22 02:25:21;;;;;;;51.15;22.10;;;;;;;7.46;85.02;98391.47;4997989;28;20046;-50
2022/04/22 02:30:31;;;;;;;47.65;21.63;;;;;;;7.47;85.08;98382.41;4997554;28;20108;-50
2022/04/22 02:32:56;;;;;;;44.83;20.48;;;;;;;7.47;84.88;98385.06;4991309;28;20031;-52
2022/04/22 02:35:21;;;;;;;49.72;22.33;;;;;;;7.55;84.46;98394.53;4995928;28;20042;-49
2022/04/22 02:37:48;;;;;;;46.75;21.60;;;;;;;7.51;84.73;98382.72;4991276;28;20369;-51
2022/04/22 02:45:26;;;;;;;51.25;23.30;;;;;;;7.48;84.78;98384.00;4999885;28;20395;-50
2022/04/22 02:45:43;;;;;;;51.95;21.33;;;;;;;7.49;84.60;98369.66;4999523;28;20040;-50
2022/04/22 02:48:09;;;;;;;54.55;22.20;;;;;;;7.46;84.84;98369.31;4992497;28;20030;-53
2022/04/22 02:50:34;;;;;;;47.38;21.75;;;;;;;7.45;84.65;98373.84;4995040;28;20042;-49
2022/04/22 02:52:59;;;;;;;50.65;22.17;;;;;;;7.47;84.64;98366.41;4999962;28;20026;-51
2022/04/22 02:55:25;;;;;;;52.40;23.02;;;;;;;7.47;84.88;98361.06;4995308;28;20382;-52
2022/04/22 02:57:50;;;;;;;60.92;24.30;;;;;;;7.44;84.99;98356.22;4997827;28;20037;-48
2022/04/22 03:00:16;;;;;;;53.22;22.45;;;;;;;7.42;85.22;98363.66;4985950;28;20042;-50
2022/04/22 03:02:44;;;;;;;49.65;23.33;;;;;;;7.41;85.27;98356.69;4996718;28;20022;-52
2022/04/22 03:05:10;;;;;;;47.63;22.10;;;;;;;7.41;85.31;98364.69;4995598;28;20056;-52
2022/04/22 03:07:35;;;;;;;51.08;22.17;;;;;;;7.43;85.33;98364.47;4999589;28;20410;-51
2022/04/22 03:10:01;;;;;;;47.92;21.40;;;;;;;7.39;85.27;98360.66;4994574;28;20038;-50
2022/04/22 03:12:26;;;;;;;44.45;20.17;;;;;;;7.39;85.41;98353.50;4990919;28;20094;-49
2022/04/22 03:14:52;;;;;;;48.50;22.05;;;;;;;7.42;85.27;98362.88;4991796;28;20057;-53
2022/04/22 03:17:19;;;;;;;54.90;23.52;;;;;;;7.41;85.35;98361.22;4996328;28;20030;-51
2022/04/22 03:19:44;;;;;;;55.15;22.85;;;;;;;7.39;85.48;98353.50;5003442;28;20381;-53
2022/04/22 03:22:09;;;;;;;53.88;23.15;;;;;;;7.40;85.41;98352.44;5000148;28;20035;-52
2022/04/22 03:24:36;;;;;;;47.80;22.60;;;;;;;7.38;85.42;98356.38;4994215;28;20029;-52
2022/04/22 03:27:02;;;;;;;49.17;21.85;;;;;;;7.38;85.47;98349.19;4990841;28;20100;-51
2022/04/22 03:29:27;;;;;;;57.65;23.08;;;;;;;7.43;85.29;98343.94;4994180;28;20601;-50
2022/04/22 03:31:54;;;;;;;46.92;21.67;;;;;;;7.42;85.37;98361.00;4991776;28;20081;-52
2022/04/22 03:34:19;;;;;;;54.35;23.45;;;;;;;7.42;85.23;98352.19;4990482;28;20022;-50
2022/04/22 03:36:45;;;;;;;54.42;23.38;;;;;;;7.40;85.01;98341.75;4990774;28;20046;-50
2022/04/22 03:39:10;;;;;;;48.83;22.83;;;;;;;7.41;85.29;98346.03;4996936;28;20030;-53
2022/04/22 03:41:38;;;;;;;52.03;23.48;;;;;;;7.40;85.42;98344.44;4996213;28;20047;-53
2022/04/22 03:44:03;;;;;;;49.08;22.75;;;;;;;7.37;85.54;98344.94;4994254;28;20037;-53
2022/04/22 03:46:30;;;;;;;54.17;24.77;;;;;;;7.37;85.35;98344.94;4982288;28;20566;-53
2022/04/22 03:48:56;;;;;;;53.45;25.05;;;;;;;7.37;85.31;98344.94;4990076;28;20069;-53
2022/04/22 03:51:21;;;;;;;56.03;25.05;;;;;;;7.39;85.40;98347.34;4990769;28;20558;-52
2022/04/22 03:53:47;;;;;;;54.90;23.20;;;;;;;7.39;85.27;98345.50;4998649;28;20030;-51
2022/04/22 03:58:57;;;;;;;52.67;23.77;;;;;;;7.37;85.16;98331.59;5000173;28;20092;-52
2022/04/22 04:01:23;;;;;;;50.72;23.48;;;;;;;7.40;85.14;98348.97;4996258;28;20515;-54
2022/04/22 04:03:48;;;;;;;60.63;25.10;;;;;;;7.36;85.20;98337.97;4990941;28;20052;-49
2022/04/22 04:06:13;;;;;;;57.25;24.95;;;;;;;7.35;85.43;98333.69;4989902;28;20504;-53
2022/04/22 04:08:39;;;;;;;56.95;25.67;;;;;;;7.32;85.56;98331.53;4992609;28;20694;-51
2022/04/22 04:16:14;;;;;;;60.35;25.08;;;;;;;7.27;85.91;98339.44;4997607;28;20042;-50
2022/04/22 04:18:39;;;;;;;62.38;26.48;;;;;;;7.21;86.27;98329.72;4989801;28;20030;-52
2022/04/22 04:23:50;;;;;;;63.70;26.15;;;;;;;7.23;86.38;98335.63;4989495;28;20037;-48
2022/04/22 04:26:16;;;;;;;55.40;24.45;;;;;;;7.21;86.63;98335.06;4994334;28;20022;-51
2022/04/22 04:28:43;;;;;;;63.47;25.48;;;;;;;7.19;86.58;98337.16;4999565;28;20031;-50
2022/04/22 04:31:08;;;;;;;53.88;24.90;;;;;;;7.23;86.64;98332.97;4989124;28;20069;-49
2022/04/22 04:33:36;;;;;;;58.55;24.00;;;;;;;7.26;86.24;98337.81;4991772;28;20477;-48
2022/04/22 04:36:02;;;;;;;57.25;24.65;;;;;;;7.33;86.13;98333.13;4996070;28;20026;-52
2022/04/22 04:38:27;;;;;;;59.88;25.20;;;;;;;7.60;85.15;98327.13;4989491;28;20035;-50
2022/04/22 04:40:53;;;;;;;54.05;22.95;;;;;;;7.99;83.12;98334.06;4994574;28;20047;-49
2022/04/22 04:43:19;;;;;;;52.60;24.77;;;;;;;8.34;81.33;98330.22;4992469;28;20049;-51
2022/04/22 04:45:45;;;;;;;57.72;24.15;;;;;;;8.88;78.75;98320.66;4988989;28;20049;-49
2022/04/22 04:48:11;;;;;;;46.13;21.73;;;;;;;9.13;77.64;98320.84;4992230;28;20041;-49
2022/04/22 04:50:36;;;;;;;50.45;22.92;;;;;;;9.39;75.77;98323.75;4991933;28;20041;-50
2022/04/22 04:53:01;;;;;;;57.05;22.30;;;;;;;9.56;75.13;98320.91;4987701;28;20359;-51
2022/04/22 04:55:27;;;;;;;44.45;21.20;;;;;;;10.34;72.29;98321.06;4995080;28;20079;-50
2022/04/22 04:57:52;;;;;;;45.53;20.75;;;;;;;10.52;71.28;98317.91;4996070;28;20422;-52
2022/04/22 05:00:18;;;;;;;46.55;22.13;;;;;;;11.44;68.22;98323.34;4990903;28;20481;-53
2022/04/22 05:02:44;;;;;;;46.50;21.42;;;;;;;11.32;67.68;98324.69;4994876;28;20493;-51
2022/04/22 05:05:11;;;;;;;48.35;22.00;;;;;;;11.68;66.31;98319.28;4987387;28;20030;-52
2022/04/22 05:07:49;;;;;;;46.92;21.95;;;;;;;12.02;65.27;98327.53;4989997;28;20040;-50
2022/04/22 05:10:16;;;;;;;45.97;20.58;;;;;;;11.79;65.86;98323.56;4976489;28;20066;-50
2022/04/22 05:12:42;;;;;;;45.88;20.55;;;;;;;12.04;65.08;98322.72;4992761;28;20092;-49
2022/04/22 05:15:08;;;;;;;41.33;21.15;;;;;;;12.48;63.10;98324.66;4991108;28;20440;-51
2022/04/22 05:17:34;;;;;;;43.03;21.20;;;;;;;11.55;65.79;98329.47;4976764;28;20451;-52
2022/04/22 05:20:00;;;;;;;44.17;20.73;;;;;;;12.00;64.81;98332.38;4981158;28;20080;-50
2022/04/22 05:22:25;;;;;;;36.35;19.35;;;;;;;11.90;65.18;98327.84;4998185;28;20054;-51
2022/04/22 05:24:51;;;;;;;39.97;19.52;;;;;;;12.96;62.46;98333.00;4991986;28;20045;-52
2022/04/22 05:27:16;;;;;;;38.38;20.33;;;;;;;13.50;59.18;98331.22;4998542;28;20114;-50
2022/04/22 05:32:38;;;;;;;42.53;20.15;;;;;;;10.14;69.63;98327.91;4995694;28;20104;-52
2022/04/22 05:35:08;;;;;;;41.90;20.90;;;;;;;9.21;74.47;98328.44;4993753;28;20510;-52
2022/04/22 05:37:46;;;;;;;48.80;22.50;;;;;;;8.74;76.76;98325.59;4997961;28;20084;-50
2022/04/22 05:40:12;;;;;;;43.70;21.05;;;;;;;8.56;77.85;98321.41;4996995;28;20049;-50
2022/04/22 05:42:40;;;;;;;54.50;21.40;;;;;;;8.65;77.86;98319.91;4989804;28;20030;-50
2022/04/22 05:45:07;;;;;;;45.50;21.08;;;;;;;8.63;77.98;98311.31;4989147;28;20058;-49
2022/04/22 05:47:33;;;;;;;49.10;21.88;;;;;;;8.79;77.51;98317.63;4988765;28;20065;-49
2022/04/22 05:49:58;;;;;;;45.38;21.60;;;;;;;8.80;77.88;98311.22;4971559;28;20038;-50
2022/04/22 05:52:24;;;;;;;41.50;20.05;;;;;;;9.55;74.71;98312.06;4994305;28;20041;-51
2022/04/22 05:54:49;;;;;;;43.00;20.23;;;;;;;9.60;74.18;98308.63;4990836;28;20369;-53
2022/04/22 05:57:15;;;;;;;45.40;21.88;;;;;;;9.04;76.04;98309.03;4999341;28;20061;-54
2022/04/22 05:59:41;;;;;;;40.42;19.42;;;;;;;9.60;75.46;98308.63;4996618;28;20027;-52
2022/04/22 06:02:07;;;;;;;43.83;21.05;;;;;;;9.64;74.35;98305.19;4994048;28;20833;-49
2022/04/22 06:04:33;;;;;;;36.13;20.17;;;;;;;9.60;74.58;98305.97;4999791;28;20038;-52
2022/04/22 06:06:58;;;;;;;72.82;23.30;;;;;;;9.34;75.24;98305.00;4995647;28;20049;-50
2022/04/22 06:12:08;;;;;;;39.05;18.67;;;;;;;9.06;76.10;98307.72;5001726;28;20096;-50
2022/04/22 06:14:34;;;;;;;38.92;19.05;;;;;;;9.12;75.91;98300.53;4994615;28;20029;-49
2022/04/22 06:16:59;;;;;;;36.47;17.77;;;;;;;9.15;75.86;98297.34;4992979;28;20051;-52
2022/04/22 06:19:25;;;;;;;41.75;17.92;;;;;;;9.29;74.62;98295.88;4993499;28;20030;-53
2022/04/22 06:21:50;;;;;;;33.45;18.48;;;;;;;9.27;74.77;98303.31;4991928;28;20275;-51
2022/04/22 06:24:16;;;;;;;39.88;17.52;;;;;;;9.85;72.95;98297.25;4994335;28;20026;-53
2022/04/22 06:26:41;;;;;;;35.95;17.70;;;;;;;10.20;71.00;98298.47;4995234;28;20174;-53
2022/04/22 06:29:07;;;;;;;33.60;17.90;;;;;;;10.54;70.42;98293.53;4997743;28;20035;-52
2022/04/22 06:31:33;;;;;;;30.13;16.40;;;;;;;11.73;65.56;98292.41;4999444;28;20404;-54
2022/04/22 06:33:58;;;;;;;33.05;15.95;;;;;;;12.40;63.85;98293.78;4994412;28;20049;-51
2022/04/22 06:36:26;;;;;;;31.73;15.75;;;;;;;11.17;65.21;98287.94;4991535;28;20095;-50
2022/04/22 06:38:57;;;;;;;27.92;15.82;;;;;;;9.99;69.54;98298.41;4990228;28;20026;-52
2022/04/22 06:46:51;;;;;;;29.73;15.93;;;;;;;11.70;64.08;98280.34;5000004;28;20169;-51
2022/04/22 06:49:16;;;;;;;33.38;16.75;;;;;;;10.61;67.71;98278.00;4998864;28;20030;-51
2022/04/22 06:51:42;;;;;;;29.13;15.10;;;;;;;13.21;59.98;98282.78;5000731;28;20511;-52
2022/04/22 06:54:08;;;;;;;27.05;15.07;;;;;;;14.67;54.63;98275.19;4992199;28;20026;-51
2022/04/22 06:56:34;;;;;;;28.95;15.13;;;;;;;14.16;56.07;98278.56;4991361;28;20078;-51
2022/04/22 06:59:00;;;;;;;25.20;13.93;;;;;;;12.43;59.59;98287.06;4996035;28;20084;-53
2022/04/22 07:01:25;;;;;;;26.17;14.15;;;;;;;10.83;65.89;98291.16;4998726;28;20042;-50
2022/04/22 07:03:51;;;;;;;29.92;15.95;;;;;;;11.80;63.02;98288.38;4996774;28;20125;-52
2022/04/22 07:06:16;;;;;;;29.27;16.35;;;;;;;11.05;66.22;98279.38;5001384;28;20070;-50
2022/04/22 07:08:45;;;;;;;30.10;14.73;;;;;;;11.86;62.68;98289.19;5000012;28;20509;-49
2022/04/22 07:11:11;;;;;;;32.13;15.25;;;;;;;11.09;65.27;98277.78;4997926;28;20178;-49
2022/04/22 07:13:36;;;;;;;28.60;14.38;;;;;;;12.72;60.64;98287.16;5000537;28;20473;-49
2022/04/22 07:16:02;;;;;;;26.15;14.63;;;;;;;12.05;61.46;98281.34;4991698;28;20046;-49
2022/04/22 07:18:27;;;;;;;26.95;14.32;;;;;;;11.47;63.88;98275.56;4996178;28;20126;-50
2022/04/22 07:20:53;;;;;;;23.10;13.63;;;;;;;10.74;65.49;98277.47;4989388;28;20097;-51
2022/04/22 07:23:19;;;;;;;21.42;11.43;;;;;;;10.60;65.97;98280.94;4991022;28;20089;-52
2022/04/22 07:25:46;;;;;;;26.00;13.77;;;;;;;10.34;67.17;98267.50;4995270;28;20042;-55
2022/04/22 07:28:12;;;;;;;23.55;13.95;;;;;;;11.64;64.16;98274.19;4998580;28;20128;-49
2022/04/22 07:30:39;;;;;;;31.25;13.68;;;;;;;11.68;63.36;98273.63;4994394;28;20072;-50
2022/04/22 07:33:06;;;;;;;25.60;12.60;;;;;;;10.63;66.27;98283.09;4998462;28;20062;-49
2022/04/22 07:35:32;;;;;;;27.40;14.57;;;;;;;10.52;66.75;98274.22;4990805;28;20038;-52
2022/04/22 07:37:57;;;;;;;21.25;12.60;;;;;;;10.10;67.95;98280.50;4999354;28;20057;-51
2022/04/22 07:40:23;;;;;;;29.50;14.32;;;;;;;10.30;68.09;98283.28;5003071;28;20061;-52
2022/04/22 07:48:19;;;;;;;24.73;12.82;;;;;;;11.07;66.75;98279.91;5002651;28;20053;-50
2022/04/22 07:50:46;;;;;;;29.00;14.00;;;;;;;10.72;67.16;98279.63;4989307;28;20046;-53
2022/04/22 07:53:12;;;;;;;25.67;13.27;;;;;;;10.87;66.25;98281.50;4995969;28;20041;-54
2022/04/22 07:55:37;;;;;;;24.52;13.93;;;;;;;10.43;66.55;98271.25;4988912;28;20031;-50
2022/04/22 07:58:02;;;;;;;23.92;14.07;;;;;;;10.26;67.25;98286.72;4989299;28;20037;-51
2022/04/22 08:00:28;;;;;;;27.92;13.68;;;;;;;10.38;66.70;98284.63;4990488;28;20049;-53
2022/04/22 08:02:53;;;;;;;22.08;12.70;;;;;;;10.54;66.77;98278.25;4990623;28;20376;-50
2022/04/22 08:05:19;;;;;;;28.48;15.02;;;;;;;10.74;65.65;98279.34;4990283;28;20042;-52
2022/04/22 08:07:44;;;;;;;21.90;12.55;;;;;;;10.29;66.05;98281.69;4989958;28;20026;-53
2022/04/22 08:10:09;;;;;;;19.17;10.73;;;;;;;10.46;65.56;98280.63;4996538;28;20031;-50
2022/04/22 08:12:35;;;;;;;23.15;13.05;;;;;;;10.73;65.61;98278.56;5004244;28;20025;-48
2022/04/22 08:15:03;;;;;;;26.52;12.50;;;;;;;10.86;64.87;98279.91;5001548;28;20034;-52
2022/04/22 08:17:36;;;;;;;24.80;12.95;;;;;;;10.78;65.45;98275.06;4989784;28;20034;-50
2022/04/22 08:20:02;;;;;;;21.13;13.05;;;;;;;10.70;65.60;98275.59;4999033;28;20380;-51
2022/04/22 08:22:28;;;;;;;22.15;12.98;;;;;;;10.89;65.63;98276.69;4994878;28;20058;-52
2022/04/22 08:24:53;;;;;;;22.65;11.68;;;;;;;10.76;64.91;98264.63;4997439;28;20061;-51
2022/04/22 08:27:18;;;;;;;18.73;10.45;;;;;;;10.89;64.54;98274.00;4992607;28;20475;-49
2022/04/22 08:29:45;;;;;;;25.25;12.30;;;;;;;11.05;64.39;98269.44;4989443;28;20033;-53
2022/04/22 08:32:11;;;;;;;21.75;11.98;;;;;;;10.91;64.25;98265.72;4996586;28;20045;-51
2022/04/22 08:34:36;;;;;;;21.90;13.32;;;;;;;11.01;64.62;98269.19;4995773;28;20022;-54
2022/04/22 08:37:02;;;;;;;22.75;12.93;;;;;;;11.12;63.84;98266.50;4990438;28;20046;-52
2022/04/22 08:39:27;;;;;;;22.42;13.32;;;;;;;11.02;63.42;98268.09;4988740;28;20057;-53
2022/04/22 08:41:52;;;;;;;22.02;11.90;;;;;;;11.02;63.65;98264.63;4987607;28;20038;-51
2022/04/22 08:44:18;;;;;;;23.98;13.25;;;;;;;10.99;63.53;98263.28;4977705;28;20031;-53
2022/04/22 08:52:11;;;;;;;21.70;11.85;;;;;;;11.52;62.12;98254.09;4986691;28;20953;-54
2022/04/22 08:54:39;;;;;;;33.75;13.30;;;;;;;12.72;59.52;98253.00;4995116;28;20057;-53
2022/04/22 08:57:06;;;;;;;25.65;11.80;;;;;;;13.29;56.46;98252.59;4996915;28;20445;-51
2022/04/22 08:59:31;;;;;;;21.00;12.43;;;;;;;12.75;58.41;98251.66;4993632;28;20080;-51
2022/04/22 09:01:56;;;;;;;19.70;11.40;;;;;;;12.27;58.86;98243.34;4988640;28;20493;-51
2022/04/22 09:04:22;;;;;;;24.25;12.43;;;;;;;12.51;59.03;98249.66;4988205;28;20396;-49
2022/04/22 09:06:50;;;;;;;21.63;13.13;;;;;;;13.22;57.18;98252.06;4991530;28;20202;-50
2022/04/22 09:09:17;;;;;;;20.30;12.38;;;;;;;14.14;54.45;98240.31;4993220;28;20035;-50
2022/04/22 09:11:42;;;;;;;23.58;12.70;;;;;;;14.31;53.63;98229.84;4971106;28;20046;-49
2022/04/22 09:14:08;;;;;;;24.23;11.48;;;;;;;14.77;52.43;98236.47;4987931;28;20083;-52
2022/04/22 09:16:33;;;;;;;20.95;11.80;;;;;;;14.53;52.96;98231.16;4988740;28;20042;-50
2022/04/22 09:19:00;;;;;;;22.10;12.20;;;;;;;14.00;53.85;98235.66;4989485;28;20037;-52
2022/04/22 09:21:26;;;;;;;17.73;11.88;;;;;;;15.23;50.20;98223.03;4991606;28;20282;-52
2022/04/22 09:23:53;;;;;;;20.38;12.57;;;;;;;15.86;48.31;98228.91;5001172;28;20117;-50
2022/04/22 09:26:25;;;;;;;20.67;12.13;;;;;;;14.79;51.75;98232.38;4990893;28;20428;-52
2022/04/22 09:29:01;;;;;;;19.77;12.88;;;;;;;14.67;52.84;98227.44;4994218;28;20022;-49
2022/04/22 09:31:27;;;;;;;19.08;11.57;;;;;;;14.74;52.23;98235.16;4993919;28;20710;-51
2022/04/22 09:33:53;;;;;;;17.90;11.63;;;;;;;15.15;50.13;98221.03;4995541;28;20026;-51
2022/04/22 09:45:01;;;;;;;16.85;10.80;;;;;;;14.55;51.71;98200.16;4991222;28;20062;-50
2022/04/22 09:47:28;;;;;;;17.58;10.30;;;;;;;14.77;50.58;98213.00;4988398;28;20089;-50
2022/04/22 09:49:54;;;;;;;20.20;10.98;;;;;;;15.18;49.54;98204.22;4988312;28;20473;-49
2022/04/22 09:52:29;;;;;;;19.23;10.98;;;;;;;15.51;49.09;98190.66;4987567;28;20133;-50
2022/04/22 09:54:59;;;;;;;16.75;11.82;;;;;;;15.24;49.74;98194.91;4994172;28;20518;-52
2022/04/22 09:57:25;;;;;;;16.50;11.60;;;;;;;15.32;49.50;98202.34;4993923;28;20045;-50
2022/04/22 09:59:52;;;;;;;20.05;12.18;;;;;;;15.06;49.44;98196.59;4988629;28;20026;-50
2022/04/22 10:02:23;;;;;;;17.00;11.50;;;;;;;15.18;49.48;98177.22;5000955;28;20038;-50
2022/04/22 10:04:49;;;;;;;17.48;11.45;;;;;;;15.68;48.17;98184.66;4986886;28;20034;-50
2022/04/22 10:07:16;;;;;;;19.58;11.88;;;;;;;15.51;48.12;98179.84;4997436;28;20065;-50
2022/04/22 10:09:42;;;;;;;16.50;11.70;;;;;;;15.76;47.32;98175.06;4991115;28;20041;-51
2022/04/22 10:12:09;;;;;;;21.38;11.30;;;;;;;16.42;46.95;98179.00;4970344;28;20042;-53
2022/04/22 10:14:37;;;;;;;17.40;11.27;;;;;;;15.95;48.48;98183.84;4995454;28;20026;-51
2022/04/22 10:17:04;;;;;;;19.30;11.38;;;;;;;15.12;48.75;98164.91;4995472;28;20499;-50
2022/04/22 10:19:33;;;;;;;18.88;11.60;;;;;;;14.76;50.12;98156.66;4995183;28;20084;-53
2022/04/22 10:22:00;;;;;;;21.67;11.65;;;;;;;15.45;50.10;98162.13;4987363;28;20057;-51
2022/04/22 10:24:26;;;;;;;23.38;12.20;;;;;;;15.38;49.19;98154.44;4993894;28;20428;-53
2022/04/22 10:26:52;;;;;;;18.88;11.73;;;;;;;17.05;45.68;98161.00;4986469;28;20038;-52
2022/04/22 10:29:18;;;;;;;15.90;11.30;;;;;;;17.14;45.46;98151.00;4986804;28;20037;-52
2022/04/22 10:31:43;;;;;;;18.75;12.50;;;;;;;16.53;45.53;98150.63;4974243;28;20112;-50
2022/04/22 10:34:09;;;;;;;15.77;11.32;;;;;;;16.99;45.16;98157.59;4987002;28;20030;-51
2022/04/22 10:36:35;;;;;;;18.20;11.95;;;;;;;16.81;45.34;98156.72;4969769;28;20045;-49
2022/04/22 10:39:00;;;;;;;19.20;12.02;;;;;;;16.08;46.27;98150.59;4995106;28;20030;-50
2022/04/22 10:41:26;;;;;;;13.93;10.50;;;;;;;16.04;46.91;98141.47;4996943;28;20048;-54
2022/04/22 10:49:46;;;;;;;18.50;11.48;;;;;;;15.02;49.37;98148.91;4994396;28;20033;-53
2022/04/22 10:52:18;;;;;;;16.63;11.38;;;;;;;15.83;47.88;98130.34;4998570;28;20092;-50
2022/04/22 10:54:52;;;;;;;16.58;10.73;;;;;;;17.11;45.28;98119.13;5001143;28;20071;-52
2022/04/22 10:57:25;;;;;;;18.08;11.07;;;;;;;16.74;45.90;98125.78;5000967;28;20419;-52
2022/04/22 11:00:11;;;;;;;18.50;11.70;;;;;;;17.00;44.33;98126.75;4995157;28;20461;-52
2022/04/22 11:02:40;;;;;;;17.75;10.45;;;;;;;16.69;45.45;98126.69;4990569;28;20049;-52
2022/04/22 11:05:20;;;;;;;18.83;10.68;;;;;;;17.43;43.88;98109.84;4994829;28;20436;-51
2022/04/22 11:07:56;;;;;;;18.38;10.48;;;;;;;16.63;44.42;98132.56;4995788;28;20475;-52
2022/04/22 11:10:25;;;;;;;21.27;11.82;;;;;;;16.24;45.93;98115.09;4996770;28;20046;-50
2022/04/22 11:12:57;;;;;;;20.73;10.87;;;;;;;15.72;46.82;98112.72;4994480;28;20014;-52
2022/04/22 11:15:41;;;;;;;20.55;11.73;;;;;;;15.53;47.77;98123.66;4997426;28;20046;-53
2022/04/22 11:18:08;;;;;;;19.85;11.60;;;;;;;15.09;49.69;98103.44;4995585;28;20049;-50
2022/04/22 11:20:37;;;;;;;18.02;12.05;;;;;;;15.05;49.27;98107.84;4988513;28;20038;-49
2022/04/22 11:23:05;;;;;;;23.17;12.20;;;;;;;15.02;49.51;98108.44;4993952;28;20057;-54
2022/04/22 11:25:30;;;;;;;21.08;12.20;;;;;;;15.00;48.87;98100.66;4996996;28;20049;-52
2022/04/22 11:27:56;;;;;;;23.77;12.10;;;;;;;16.44;45.96;98101.06;4996455;28;20035;-52
2022/04/22 11:30:22;;;;;;;18.98;12.20;;;;;;;16.50;46.74;98093.63;4986121;28;20050;-50
2022/04/22 11:32:49;;;;;;;15.95;11.52;;;;;;;16.90;45.82;98091.00;4988747;28;20107;-53
2022/04/22 11:35:21;;;;;;;19.25;11.25;;;;;;;16.92;44.84;98097.72;4991548;28;20026;-51
2022/04/22 11:38:00;;;;;;;17.45;12.18;;;;;;;16.38;45.46;98099.63;4988362;28;20082;-53
2022/04/22 11:40:25;;;;;;;20.73;10.85;;;;;;;16.33;46.56;98097.84;4992864;28;20057;-53
2022/04/22 11:42:54;;;;;;;15.68;10.90;;;;;;;18.22;42.02;98086.38;4998912;28;20122;-50
2022/04/22 11:45:19;;;;;;;19.58;11.23;;;;;;;16.52;44.81;98078.69;4994224;28;20026;-52
2022/04/22 11:47:45;;;;;;;20.58;10.48;;;;;;;16.52;46.58;98067.09;4991692;28;20499;-50
2022/04/22 11:50:17;;;;;;;17.55;10.75;;;;;;;16.94;45.49;98090.09;4986998;28;20380;-52
2022/04/22 11:52:43;;;;;;;17.75;10.10;;;;;;;16.04;46.89;98090.13;4990401;28;20014;-52
2022/04/22 11:55:08;;;;;;;16.70;10.18;;;;;;;15.93;46.73;98080.69;4991036;28;20229;-50
2022/04/22 11:57:37;;;;;;;13.02;9.75;;;;;;;16.22;46.13;98082.94;4995710;28;20026;-51
2022/04/22 12:05:55;;;;;;;24.35;11.90;;;;;;;16.55;46.00;98072.69;4991792;28;20052;-53
2022/04/22 12:08:20;;;;;;;19.00;9.93;;;;;;;16.14;46.68;98068.25;4997903;28;20018;-50
2022/04/22 12:10:47;;;;;;;17.10;11.20;;;;;;;16.54;45.49;98065.66;4991515;28;20046;-54
2022/04/22 12:13:16;;;;;;;15.13;10.50;;;;;;;16.19;45.78;98064.66;4989604;28;20102;-51
2022/04/22 12:15:48;;;;;;;17.30;10.63;;;;;;;16.70;45.79;98062.56;4987375;28;20057;-53
2022/04/22 12:18:33;;;;;;;13.32;9.13;;;;;;;17.07;44.58;98066.72;5003047;28;20079;-50
2022/04/22 12:20:59;;;;;;;19.02;9.25;;;;;;;16.65;46.11;98054.56;5000165;28;20069;-53
2022/04/22 12:23:50;;;;;;;24.80;10.68;;;;;;;16.55;45.40;98056.47;4987458;28;20521;-53
2022/04/22 12:26:23;;;;;;;19.52;10.85;;;;;;;16.04;47.15;98041.50;4996027;28;20046;-52